Time;durP1;ratioP1;P1;durP2;ratioP2;P2;SDS_P1;SDS_P2;PMS_P1;PMS_P2;Temp;Humidity;BMP_temperature;BMP_pressure;BME280_temperature;BME280_humidity;BME280_pressure;Samples;Min_cycle;Max_cycle;Signal;HPM_P1;HPM_P2
2022/11/17 00:00:40;;;;;;;7.78;1.30;;;9.20;99.90;;;8.48;100.00;95556.16;4965736;28;20047;-73
2022/11/17 00:03:14;;;;;;;4.40;0.90;;;9.10;99.90;;;8.57;100.00;95570.22;4964329;28;20051;-72
2022/11/17 00:05:43;;;;;;;7.40;1.52;;;9.10;99.90;;;8.44;100.00;95556.47;4966806;28;20121;-72
2022/11/17 00:08:10;;;;;;;4.03;1.08;;;9.10;99.90;;;8.44;100.00;95554.72;4965344;28;20047;-73
2022/11/17 00:10:37;;;;;;;6.22;1.25;;;9.10;99.90;;;8.48;100.00;95552.75;4980735;28;20057;-72
2022/11/17 00:15:50;;;;;;;4.80;1.40;;;9.10;99.90;;;8.51;100.00;95535.28;4965266;28;20051;-73
2022/11/17 00:21:18;;;;;;;5.05;1.00;;;9.10;99.90;;;8.55;100.00;95525.53;4968502;28;20050;-73
2022/11/17 00:23:46;;;;;;;5.45;1.10;;;9.20;99.90;;;8.52;100.00;95525.75;4967358;28;20070;-71
2022/11/17 00:26:16;;;;;;;2.83;0.80;;;9.10;99.90;;;8.54;100.00;95514.38;4966125;28;20051;-75
2022/11/17 00:28:43;;;;;;;5.60;0.88;;;9.10;99.90;;;8.58;100.00;95517.59;4969346;28;20058;-72
2022/11/17 00:34:05;;;;;;;4.00;0.93;;;9.20;99.90;;;8.63;100.00;95525.06;4965360;28;20516;-73
2022/11/17 00:36:48;;;;;;;3.65;0.80;;;9.20;99.90;;;8.62;100.00;95524.22;4969467;28;20057;-73
2022/11/17 00:39:17;;;;;;;4.43;1.00;;;9.20;99.90;;;8.59;100.00;95520.06;4984540;28;20046;-73
2022/11/17 00:41:44;;;;;;;4.78;0.95;;;9.20;99.90;;;8.55;100.00;95508.28;4969827;28;20645;-73
2022/11/17 00:44:12;;;;;;;3.50;0.73;;;9.10;99.90;;;8.54;100.00;95505.81;4983151;28;20059;-73
2022/11/17 00:46:40;;;;;;;5.00;0.98;;;9.10;99.90;;;8.50;100.00;95505.16;4968232;28;20054;-72
2022/11/17 00:49:09;;;;;;;5.75;0.90;;;9.10;99.90;;;8.47;100.00;95486.47;4952021;28;20061;-72
2022/11/17 00:51:37;;;;;;;4.32;0.88;;;9.10;99.90;;;8.56;100.00;95485.84;4967920;28;20055;-73
2022/11/17 00:54:06;;;;;;;3.08;0.77;;;9.10;99.90;;;8.46;100.00;95474.47;4967859;28;20513;-73
2022/11/17 00:56:33;;;;;;;5.07;0.90;;;9.00;99.90;;;8.42;100.00;95462.69;4964263;28;20053;-72
2022/11/17 00:59:00;;;;;;;3.65;0.90;;;9.00;99.90;;;8.44;100.00;95469.41;4964340;28;20038;-72
2022/11/17 01:01:28;;;;;;;5.20;0.80;;;9.00;99.90;;;8.44;100.00;95456.50;4966598;28;20050;-70
2022/11/17 01:04:04;;;;;;;4.80;0.80;;;9.00;99.90;;;8.44;100.00;95453.06;4963858;28;20054;-71
2022/11/17 01:06:35;;;;;;;4.38;0.90;;;9.00;99.90;;;8.50;100.00;95450.88;4981905;28;20042;-71
2022/11/17 01:09:14;;;;;;;4.57;0.80;;;9.00;99.90;;;8.50;100.00;95444.88;4968408;28;20058;-72
2022/11/17 01:11:42;;;;;;;4.05;0.95;;;9.00;99.90;;;8.55;100.00;95432.47;4966868;28;20769;-71
2022/11/17 01:14:20;;;;;;;6.38;0.98;;;9.10;99.90;;;8.55;100.00;95428.13;4967025;28;20046;-71
2022/11/17 01:16:47;;;;;;;4.10;0.80;;;9.10;99.90;;;8.60;100.00;95414.88;4965644;28;20065;-70
2022/11/17 01:19:15;;;;;;;4.50;1.25;;;9.10;99.90;;;8.64;100.00;95405.97;4967145;28;20086;-71
2022/11/17 01:21:43;;;;;;;2.08;0.60;;;9.10;99.90;;;8.61;100.00;95398.44;4967111;28;20150;-70
2022/11/17 01:24:11;;;;;;;4.72;0.82;;;9.20;99.90;;;8.63;100.00;95395.75;4965553;28;20047;-71
2022/11/17 01:26:39;;;;;;;3.58;0.80;;;9.20;99.90;;;8.65;100.00;95404.22;4968535;28;20090;-72
2022/11/17 01:29:07;;;;;;;3.15;0.82;;;9.20;99.90;;;8.63;100.00;95398.34;4966671;28;20072;-71
2022/11/17 01:31:38;;;;;;;3.75;0.80;;;9.30;99.90;;;8.66;100.00;95380.00;4965573;28;20054;-72
2022/11/17 01:34:06;;;;;;;6.85;0.80;;;9.30;99.90;;;8.59;100.00;95366.69;4965442;28;20047;-69
2022/11/17 01:39:24;;;;;;;3.40;0.73;;;9.20;99.90;;;8.63;100.00;95362.13;4978109;28;20051;-72
2022/11/17 01:41:52;;;;;;;2.30;0.80;;;9.20;99.90;;;8.58;100.00;95358.09;4966746;28;20046;-71
2022/11/17 01:44:54;;;;;;;5.18;0.80;;;9.20;99.90;;;8.62;100.00;95350.97;4966667;28;20061;-71
2022/11/17 01:47:45;;;;;;;4.68;0.80;;;9.20;99.90;;;8.69;100.00;95340.97;4966011;28;20517;-70
2022/11/17 01:50:26;;;;;;;2.65;0.60;;;9.20;99.90;;;8.75;100.00;95336.19;4965217;28;20051;-72
2022/11/17 01:52:58;;;;;;;3.00;0.80;;;9.30;99.90;;;8.93;100.00;95333.25;4968912;28;20047;-72
2022/11/17 01:55:32;;;;;;;4.20;0.75;;;9.40;99.90;;;8.88;100.00;95340.53;4976489;28;20047;-71
2022/11/17 01:58:10;;;;;;;3.67;0.60;;;9.50;99.90;;;8.92;100.00;95324.66;4981861;28;20058;-72
2022/11/17 02:00:37;;;;;;;3.03;0.63;;;9.50;99.90;;;9.00;100.00;95311.97;4979281;28;20061;-72
2022/11/17 02:03:06;;;;;;;4.50;0.70;;;9.60;99.90;;;8.98;100.00;95305.28;4968128;28;20054;-72
2022/11/17 02:05:54;;;;;;;2.55;0.52;;;9.60;99.90;;;9.05;100.00;95309.06;4967781;28;20066;-71
2022/11/17 02:08:25;;;;;;;3.80;0.60;;;9.70;99.90;;;9.04;100.00;95306.59;4978915;28;20051;-71
2022/11/17 02:10:53;;;;;;;3.05;0.70;;;9.70;99.90;;;9.08;100.00;95308.03;4965029;28;20486;-70
2022/11/17 02:13:21;;;;;;;3.53;0.50;;;9.70;99.90;;;9.12;100.00;95317.22;4965852;28;20046;-72
2022/11/17 02:15:48;;;;;;;1.95;0.60;;;9.80;99.90;;;9.09;100.00;95309.69;4978259;28;20050;-70
2022/11/17 02:18:17;;;;;;;6.57;0.80;;;9.80;99.90;;;9.00;100.00;95318.94;4966852;28;20062;-72
2022/11/17 02:21:38;;;;;;;4.40;0.80;;;9.70;99.90;;;9.05;100.00;95313.41;4966704;28;20123;-70
2022/11/17 02:24:36;;;;;;;3.47;0.55;;;9.70;99.90;;;8.97;100.00;95306.22;4982260;28;20150;-71
2022/11/17 02:27:39;;;;;;;2.05;0.60;;;9.60;99.90;;;9.07;100.00;95314.13;4979407;28;20393;-71
2022/11/17 02:30:12;;;;;;;1.67;0.52;;;9.60;99.90;;;9.07;100.00;95312.38;4966200;28;20061;-72
2022/11/17 02:33:11;;;;;;;2.90;0.80;;;9.70;99.90;;;9.04;100.00;95304.84;4967388;28;20444;-72
2022/11/17 02:35:59;;;;;;;4.20;0.80;;;9.70;99.90;;;9.04;100.00;95310.00;4966808;28;20066;-72
2022/11/17 02:38:53;;;;;;;5.25;0.70;;;9.70;99.90;;;9.03;100.00;95303.16;4965985;28;20516;-72
2022/11/17 02:41:46;;;;;;;3.33;0.70;;;9.60;99.90;;;9.04;100.00;95309.19;4965551;28;20505;-72
2022/11/17 02:44:23;;;;;;;3.40;0.80;;;9.60;99.90;;;9.00;100.00;95306.00;4967886;28;20058;-71
2022/11/17 02:46:58;;;;;;;4.30;1.15;;;9.60;99.90;;;8.99;100.00;95296.59;4967432;28;20058;-71
2022/11/17 02:49:42;;;;;;;3.00;0.80;;;9.50;99.90;;;8.97;100.00;95307.03;4966081;28;20071;-71
2022/11/17 02:52:09;;;;;;;3.88;0.80;;;9.60;99.90;;;8.98;100.00;95300.91;4981945;28;20058;-71
2022/11/17 02:54:36;;;;;;;3.63;0.60;;;9.60;99.90;;;8.98;100.00;95297.50;4966382;28;20067;-72
2022/11/17 02:57:03;;;;;;;3.45;0.98;;;9.60;99.90;;;8.98;100.00;95297.50;4963838;28;20074;-70
2022/11/17 02:59:34;;;;;;;2.67;0.88;;;9.60;99.90;;;8.94;100.00;95303.84;4965067;28;20058;-72
2022/11/17 03:02:07;;;;;;;4.80;1.13;;;9.60;99.90;;;8.99;100.00;95292.25;4963533;28;20059;-71
2022/11/17 03:04:52;;;;;;;3.70;0.98;;;9.70;99.90;;;9.03;100.00;95292.00;4965998;28;20378;-71
2022/11/17 03:07:45;;;;;;;4.60;1.00;;;9.70;99.90;;;9.00;100.00;95288.69;4964794;28;20464;-72
2022/11/17 03:10:53;;;;;;;;;;;9.70;99.90;;;9.00;100.00;95287.88;4976183;28;20074;-71
2022/11/17 03:13:36;;;;;;;5.13;1.13;;;9.70;99.90;;;9.01;100.00;95279.19;4962944;28;19948;-72
2022/11/17 03:16:23;;;;;;;4.40;0.98;;;9.70;99.90;;;9.00;100.00;95274.94;4964177;28;20433;-71
2022/11/17 03:19:14;;;;;;;7.95;1.25;;;9.70;99.90;;;8.97;100.00;95288.94;4963963;28;20149;-71
2022/11/17 03:22:00;;;;;;;5.55;0.90;;;9.70;99.90;;;9.00;100.00;95280.94;4979625;28;20051;-71
2022/11/17 03:24:32;;;;;;;5.47;1.05;;;9.70;99.90;;;8.93;100.00;95282.31;4964673;28;20055;-72
2022/11/17 03:27:07;;;;;;;3.63;1.08;;;9.70;99.90;;;8.99;100.00;95287.06;4963124;28;20046;-71
2022/11/17 03:29:39;;;;;;;3.35;0.80;;;9.70;99.90;;;9.04;100.00;95273.78;4967746;28;20056;-71
2022/11/17 03:32:07;;;;;;;5.78;1.02;;;9.80;99.90;;;9.02;100.00;95290.38;4961617;28;20047;-70
2022/11/17 03:34:41;;;;;;;3.08;0.80;;;9.80;99.90;;;9.05;100.00;95274.59;4962587;28;20058;-70
2022/11/17 03:37:11;;;;;;;6.32;1.02;;;9.80;99.90;;;8.99;100.00;95274.13;4964212;28;20051;-71
2022/11/17 03:39:46;;;;;;;3.95;0.90;;;9.80;99.90;;;9.07;100.00;95270.97;4962669;28;20058;-70
2022/11/17 03:42:23;;;;;;;5.90;1.17;;;9.80;99.90;;;9.06;100.00;95273.69;4962843;28;20047;-72
2022/11/17 03:44:57;;;;;;;4.63;1.08;;;9.80;99.90;;;9.07;100.00;95270.16;4962771;28;20055;-71
2022/11/17 03:47:26;;;;;;;3.63;1.00;;;9.80;99.90;;;9.07;100.00;95273.56;4961417;28;20051;-71
2022/11/17 03:50:06;;;;;;;3.42;0.98;;;9.80;99.90;;;8.97;100.00;95280.34;4963576;28;20142;-72
2022/11/17 03:52:34;;;;;;;1.90;1.05;;;9.70;99.90;;;8.86;100.00;95275.13;4962537;28;20096;-73
2022/11/17 03:55:02;;;;;;;5.35;1.08;;;9.60;99.90;;;8.81;100.00;95280.63;4966659;28;20046;-73
2022/11/17 03:57:57;;;;;;;4.93;1.20;;;9.50;99.90;;;8.73;100.00;95278.59;4965071;28;20047;-72
2022/11/17 04:00:24;;;;;;;3.22;1.08;;;9.40;99.90;;;8.76;100.00;95273.22;4966698;28;20051;-73
2022/11/17 04:02:57;;;;;;;4.00;0.90;;;9.40;99.90;;;8.72;100.00;95279.53;4966682;28;20053;-70
2022/11/17 04:05:24;;;;;;;;;;;9.40;99.90;;;8.82;100.00;95274.50;4980502;28;20054;-72
2022/11/17 04:07:51;;;;;;;4.75;0.90;;;9.40;99.90;;;8.85;100.00;95279.50;4967134;28;20363;-71
2022/11/17 04:10:22;;;;;;;3.13;0.93;;;9.30;99.90;;;8.87;100.00;95253.47;4969011;28;20445;-72
2022/11/17 04:18:22;;;;;;;5.07;1.15;;;9.40;99.90;;;8.88;100.00;95262.91;4966587;28;20052;-71
2022/11/17 04:20:55;;;;;;;4.75;1.20;;;9.40;99.90;;;8.88;100.00;95257.75;4981369;28;20059;-71
2022/11/17 04:23:24;;;;;;;8.55;1.50;;;9.40;99.90;;;8.97;100.00;95249.31;4976789;28;20069;-72
2022/11/17 04:28:47;;;;;;;4.45;1.00;;;9.50;99.90;;;9.08;100.00;95249.34;4967042;28;20150;-72
2022/11/17 04:31:25;;;;;;;3.38;1.05;;;9.60;99.90;;;9.09;100.00;95261.31;4970201;28;20066;-71
2022/11/17 04:34:02;;;;;;;4.85;0.88;;;9.60;99.90;;;9.12;100.00;95261.13;4964606;28;20069;-70
2022/11/17 04:36:34;;;;;;;3.83;0.80;;;9.60;99.90;;;9.13;100.00;95257.59;4970286;28;20050;-72
2022/11/17 04:39:01;;;;;;;3.97;0.88;;;9.60;99.90;;;9.26;100.00;95254.06;4967842;28;20054;-72
2022/11/17 04:44:31;;;;;;;5.10;0.90;;;9.70;99.90;;;9.25;100.00;95242.91;4975173;28;20047;-72
2022/11/17 04:47:00;;;;;;;4.80;0.80;;;9.70;99.90;;;9.23;100.00;95251.72;4965758;28;20062;-71
2022/11/17 04:49:28;;;;;;;3.50;0.90;;;9.70;99.90;;;9.24;100.00;95261.97;4980276;28;20058;-71
2022/11/17 04:51:55;;;;;;;4.35;0.95;;;9.80;99.90;;;9.26;100.00;95241.13;4966752;28;20386;-70
2022/11/17 04:54:25;;;;;;;4.97;0.85;;;9.80;99.90;;;9.29;100.00;95246.09;4966804;28;20054;-71
2022/11/17 04:56:53;;;;;;;6.88;1.40;;;9.90;99.90;;;9.30;100.00;95242.56;4968843;28;20035;-71
2022/11/17 04:59:21;;;;;;;4.78;0.90;;;9.90;99.90;;;9.30;100.00;95230.44;4966063;28;20058;-71
2022/11/17 05:01:48;;;;;;;9.25;0.95;;;9.90;99.90;;;9.29;100.00;95227.97;4965583;28;20374;-72
2022/11/17 05:07:06;;;;;;;6.45;0.95;;;9.90;99.90;;;9.35;100.00;95222.31;4965415;28;20070;-72
2022/11/17 05:09:33;;;;;;;5.05;0.90;;;10.00;99.90;;;9.36;100.00;95222.22;4966809;28;20132;-72
2022/11/17 05:14:47;;;;;;;4.90;0.70;;;10.00;99.90;;;9.47;100.00;95224.00;4963988;28;20127;-72
2022/11/17 05:17:15;;;;;;;6.35;0.90;;;10.00;99.90;;;9.48;100.00;95222.22;4967418;28;20150;-71
2022/11/17 05:19:45;;;;;;;4.78;0.98;;;10.10;99.90;;;9.56;100.00;95225.06;4948377;28;20134;-70
2022/11/17 05:25:07;;;;;;;3.55;0.80;;;10.10;99.90;;;9.56;100.00;95240.59;4962739;28;20057;-70
2022/11/17 05:27:34;;;;;;;3.45;0.60;;;10.20;99.90;;;9.57;100.00;95253.41;4962309;28;20046;-71
2022/11/17 05:30:05;;;;;;;4.40;0.80;;;10.20;99.90;;;9.55;100.00;95234.59;4965590;28;20051;-71
2022/11/17 05:32:32;;;;;;;4.40;0.82;;;10.20;99.90;;;9.52;100.00;95245.19;4965953;28;20408;-71
2022/11/17 05:34:58;;;;;;;7.88;1.00;;;10.20;99.90;;;9.57;100.00;95256.00;4964350;28;20054;-72
2022/11/17 05:37:25;;;;;;;3.97;0.75;;;10.20;99.90;;;9.55;100.00;95241.53;4966985;28;20504;-72
2022/11/17 05:39:52;;;;;;;2.63;0.60;;;10.20;99.90;;;9.56;100.00;95246.59;4965527;28;20513;-71
2022/11/17 05:42:19;;;;;;;3.92;0.98;;;10.20;99.90;;;9.55;100.00;95251.88;4981508;28;20050;-71
2022/11/17 05:44:47;;;;;;;7.75;0.70;;;10.20;99.90;;;9.58;100.00;95234.38;4966605;28;20058;-72
2022/11/17 05:47:14;;;;;;;4.13;0.70;;;10.20;99.90;;;9.61;100.00;95254.03;4964620;28;20105;-71
2022/11/17 05:49:41;;;;;;;5.13;0.95;;;10.20;99.90;;;9.52;100.00;95236.59;4964006;28;20069;-71
2022/11/17 05:52:08;;;;;;;3.97;1.08;;;10.10;99.90;;;9.49;100.00;95248.00;4967054;28;20059;-72
2022/11/17 05:54:35;;;;;;;7.35;0.90;;;10.10;99.90;;;9.52;100.00;95252.94;4964346;28;20051;-72
2022/11/17 05:57:16;;;;;;;4.40;0.80;;;10.10;99.90;;;9.54;100.00;95253.66;4963680;28;20047;-72
2022/11/17 05:59:55;;;;;;;4.55;0.90;;;10.20;99.90;;;9.51;100.00;95253.91;4965295;28;20074;-70
2022/11/17 06:02:36;;;;;;;3.05;0.60;;;10.30;99.90;;;9.55;100.00;95257.06;4965741;28;20055;-71
2022/11/17 06:05:03;;;;;;;6.85;0.70;;;10.30;99.90;;;9.58;100.00;95247.31;4966276;28;20042;-71
2022/11/17 06:07:31;;;;;;;4.55;0.90;;;10.30;99.90;;;9.63;100.00;95244.38;4964288;28;20976;-75
2022/11/17 06:09:58;;;;;;;5.78;0.93;;;10.30;99.90;;;9.68;100.00;95246.63;4963462;28;20069;-71
2022/11/17 06:12:25;;;;;;;3.17;0.70;;;10.30;99.90;;;9.68;100.00;95249.22;4963834;28;20055;-70
2022/11/17 06:14:52;;;;;;;4.55;0.70;;;10.30;99.90;;;9.68;100.00;95254.38;4964458;28;20055;-71
2022/11/17 06:17:24;;;;;;;5.13;0.88;;;10.40;99.90;;;9.65;100.00;95232.13;4964772;28;20042;-69
2022/11/17 06:20:15;;;;;;;4.55;1.00;;;10.40;99.90;;;9.71;100.00;95265.31;4978362;28;20197;-72
2022/11/17 06:22:42;;;;;;;5.75;1.00;;;10.40;99.90;;;9.63;100.00;95260.72;4980413;28;20069;-71
2022/11/17 06:25:17;;;;;;;3.60;0.80;;;10.40;99.90;;;9.64;100.00;95254.59;4965620;28;20081;-71
2022/11/17 06:27:45;;;;;;;5.18;0.80;;;10.40;99.90;;;9.66;100.00;95277.00;4965852;28;20051;-71
2022/11/17 06:30:12;;;;;;;8.30;1.05;;;10.40;99.90;;;9.70;100.00;95252.50;4965243;28;20147;-72
2022/11/17 06:32:42;;;;;;;8.30;1.17;;;10.50;99.90;;;9.80;100.00;95241.31;4966780;28;20126;-70
2022/11/17 06:35:12;;;;;;;8.52;1.38;;;10.50;99.90;;;9.72;100.00;95264.41;4963428;28;20054;-71
2022/11/17 06:37:39;;;;;;;7.32;1.23;;;10.40;99.90;;;9.76;100.00;95263.22;4965081;28;20085;-70
2022/11/17 06:40:08;;;;;;;7.90;1.25;;;10.60;99.90;;;9.80;100.00;95282.75;4965438;28;20063;-71
2022/11/17 06:45:24;;;;;;;6.50;1.20;;;10.60;99.90;;;9.74;100.00;95267.69;4975979;28;20054;-71
2022/11/17 06:47:54;;;;;;;8.60;1.73;;;10.60;99.90;;;9.73;100.00;95241.91;4962251;28;20145;-71
2022/11/17 06:50:21;;;;;;;15.10;1.88;;;10.60;99.90;;;9.66;100.00;95269.22;4961967;28;20085;-71
2022/11/17 06:52:48;;;;;;;13.40;1.85;;;10.50;99.90;;;9.64;100.00;95258.97;4979226;28;20054;-70
2022/11/17 06:55:15;;;;;;;11.52;1.75;;;10.40;99.90;;;9.67;100.00;95258.75;4967885;28;20133;-72
2022/11/17 06:57:43;;;;;;;9.48;1.58;;;10.50;99.90;;;9.65;100.00;95255.44;4968889;28;20058;-71
2022/11/17 07:00:17;;;;;;;11.65;1.52;;;10.40;99.90;;;9.60;100.00;95257.53;4966680;28;20129;-71
2022/11/17 07:02:44;;;;;;;8.73;1.40;;;10.40;99.90;;;9.57;100.00;95258.59;4978844;28;20043;-72
2022/11/17 07:05:11;;;;;;;8.32;1.20;;;10.30;99.90;;;9.57;100.00;95275.91;4962730;28;20146;-72
2022/11/17 07:07:37;;;;;;;8.88;1.40;;;10.20;99.90;;;9.49;100.00;95271.31;4964854;28;20084;-72
2022/11/17 07:10:05;;;;;;;10.02;1.98;;;10.20;99.90;;;9.53;100.00;95269.31;4963509;28;20054;-72
2022/11/17 07:12:32;;;;;;;8.27;1.30;;;10.20;99.90;;;9.60;100.00;95291.22;4964083;28;20150;-71
2022/11/17 07:15:00;;;;;;;5.97;1.23;;;10.30;99.90;;;9.61;100.00;95287.69;4977705;28;20054;-72
2022/11/17 07:17:28;;;;;;;11.15;1.83;;;10.20;99.90;;;9.49;100.00;95279.09;4965034;28;20078;-71
2022/11/17 07:19:55;;;;;;;11.38;1.67;;;10.30;99.90;;;9.21;100.00;95282.88;4961230;28;20150;-71
2022/11/17 07:22:22;;;;;;;11.15;1.25;;;10.20;99.90;;;9.09;100.00;95310.50;4964014;28;20154;-72
2022/11/17 07:24:49;;;;;;;8.63;1.92;;;9.90;99.90;;;8.98;100.00;95305.28;4965334;28;20460;-73
2022/11/17 07:27:16;;;;;;;9.57;1.52;;;9.80;99.90;;;10.38;100.00;95261.91;4966223;28;20080;-73
2022/11/17 07:29:43;;;;;;;5.00;0.55;;;9.70;99.90;;;10.26;100.00;95343.19;4972390;28;20108;-72
2022/11/17 07:32:12;;;;;;;10.90;1.92;;;9.50;99.90;;;10.10;100.00;95348.72;4974394;28;20047;-73
2022/11/17 07:34:40;;;;;;;8.60;1.20;;;9.50;99.90;;;9.80;100.00;95341.53;4973284;28;20153;-71
2022/11/17 07:37:08;;;;;;;6.13;1.15;;;9.60;99.90;;;9.76;100.00;95372.03;4972745;28;20099;-72
2022/11/17 07:39:35;;;;;;;7.90;0.93;;;9.50;99.90;;;9.46;100.00;95343.22;4972068;28;20133;-73
2022/11/17 07:42:02;;;;;;;5.55;0.95;;;9.50;99.90;;;9.37;100.00;95342.97;4970135;28;20569;-74
2022/11/17 07:44:29;;;;;;;13.57;0.80;;;9.40;99.90;;;9.47;100.00;95356.06;4967379;28;20062;-71
2022/11/17 07:46:56;;;;;;;8.43;1.05;;;9.40;99.90;;;9.53;100.00;95359.94;4966433;28;20051;-73
2022/11/17 07:49:25;;;;;;;5.35;0.95;;;9.40;99.90;;;9.50;100.00;95370.53;4972419;28;20039;-70
2022/11/17 07:51:52;;;;;;;7.30;1.02;;;9.40;99.90;;;9.62;100.00;95370.47;4982560;28;20105;-72
2022/11/17 07:54:19;;;;;;;4.55;0.82;;;9.50;99.90;;;9.45;100.00;95352.75;4985770;28;20074;-72
2022/11/17 07:56:46;;;;;;;7.85;1.33;;;9.40;99.90;;;9.54;100.00;95333.13;4981833;28;20070;-73
2022/11/17 07:59:13;;;;;;;6.93;0.80;;;9.40;99.90;;;9.54;100.00;95359.84;4974088;28;20060;-72
2022/11/17 08:01:47;;;;;;;6.22;1.05;;;9.40;99.90;;;9.56;100.00;95334.66;4990944;28;20070;-73
2022/11/17 08:04:13;;;;;;;9.30;1.33;;;9.40;99.90;;;9.55;100.00;95347.72;4987099;28;20473;-73
2022/11/17 08:06:40;;;;;;;12.00;1.35;;;9.40;99.90;;;9.64;100.00;95349.63;4970817;28;20058;-71
2022/11/17 08:09:09;;;;;;;9.82;1.50;;;9.60;99.90;;;9.62;100.00;95357.53;4971419;28;20162;-72
2022/11/17 08:11:36;;;;;;;11.30;1.80;;;9.60;99.90;;;9.60;100.00;95351.63;4971536;28;20078;-73
2022/11/17 08:14:03;;;;;;;13.40;1.38;;;9.60;99.90;;;9.60;100.00;95363.72;4968518;28;20134;-74
2022/11/17 08:16:30;;;;;;;10.88;1.70;;;9.60;99.90;;;9.61;100.00;95363.63;4971214;28;20623;-73
2022/11/17 08:18:57;;;;;;;11.35;1.38;;;9.70;99.90;;;9.63;100.00;95359.16;4969151;28;20158;-72
2022/11/17 08:21:25;;;;;;;10.52;1.52;;;9.60;99.90;;;9.54;100.00;95357.25;4968495;28;20635;-72
2022/11/17 08:23:53;;;;;;;10.95;1.58;;;9.60;99.90;;;9.58;100.00;95363.03;4969972;28;20432;-72
2022/11/17 08:26:23;;;;;;;11.15;1.50;;;9.60;99.90;;;9.68;100.00;95355.41;4968407;28;20055;-73
2022/11/17 08:28:50;;;;;;;12.35;2.25;;;9.60;99.90;;;9.73;100.00;95356.69;4982830;28;20089;-73
2022/11/17 08:31:24;;;;;;;13.07;1.88;;;9.60;99.90;;;9.75;100.00;95354.81;4970477;28;20412;-72
2022/11/17 08:33:51;;;;;;;19.35;2.47;;;9.60;99.90;;;9.82;100.00;95358.59;4966083;28;20492;-73
2022/11/17 08:36:18;;;;;;;12.57;2.10;;;9.70;99.90;;;9.78;100.00;95364.13;4984526;28;20157;-73
2022/11/17 08:38:45;;;;;;;14.88;2.53;;;9.80;99.90;;;9.83;100.00;95333.53;4984903;28;20105;-73
2022/11/17 08:41:12;;;;;;;15.50;2.58;;;9.80;99.90;;;9.93;100.00;95352.63;4964067;28;20170;-73
2022/11/17 08:43:39;;;;;;;20.30;2.42;;;9.90;99.90;;;9.89;100.00;95382.28;4967974;28;20043;-72
2022/11/17 08:46:11;;;;;;;15.63;2.80;;;10.00;99.90;;;9.84;100.00;95372.28;4965959;28;20104;-72
2022/11/17 08:48:39;;;;;;;19.80;2.80;;;10.00;99.90;;;9.72;100.00;95374.97;4980036;28;20147;-72
2022/11/17 08:51:07;;;;;;;14.82;2.78;;;10.00;99.90;;;9.79;100.00;95387.34;4965328;28;20077;-72
2022/11/17 08:53:34;;;;;;;13.52;2.35;;;10.00;99.90;;;9.63;100.00;95408.38;4966762;28;20043;-73
2022/11/17 08:56:07;;;;;;;16.60;2.25;;;9.90;99.90;;;9.56;100.00;95404.59;4966332;28;20138;-73
2022/11/17 08:58:44;;;;;;;11.02;2.05;;;9.70;99.90;;;9.56;100.00;95407.19;4963761;28;20057;-74
2022/11/17 09:01:14;;;;;;;14.40;2.95;;;9.60;99.90;;;9.47;100.00;95405.25;4964508;28;20057;-74
2022/11/17 09:03:44;;;;;;;9.38;2.15;;;9.50;99.90;;;9.60;100.00;95400.00;4965094;28;20055;-73
2022/11/17 09:06:12;;;;;;;8.73;1.95;;;9.50;99.90;;;9.44;100.00;95389.94;4981918;28;20058;-72
2022/11/17 09:08:40;;;;;;;17.65;2.75;;;9.50;99.90;;;9.51;100.00;95396.34;4965066;28;20058;-74
2022/11/17 09:11:13;;;;;;;17.67;2.85;;;9.50;99.90;;;9.58;100.00;95402.72;4964036;28;20053;-73
2022/11/17 09:13:41;;;;;;;13.93;2.38;;;9.60;99.90;;;9.63;100.00;95410.97;4966263;28;20078;-73
2022/11/17 09:16:10;;;;;;;8.63;1.77;;;9.70;99.90;;;9.75;100.00;95398.88;4962790;28;20143;-73
2022/11/17 09:18:38;;;;;;;9.43;1.75;;;9.70;99.90;;;9.74;100.00;95425.72;4966673;28;20054;-73
2022/11/17 09:21:11;;;;;;;13.57;2.13;;;9.80;99.90;;;9.74;100.00;95401.56;4980455;28;20058;-73
2022/11/17 09:23:38;;;;;;;15.25;1.98;;;9.80;99.90;;;9.62;100.00;95403.28;4965725;28;20050;-72
2022/11/17 09:26:12;;;;;;;12.43;1.70;;;9.80;99.90;;;9.75;100.00;95403.22;4964959;28;20084;-73
2022/11/17 09:28:39;;;;;;;9.18;1.70;;;9.80;99.90;;;9.66;100.00;95412.50;4966449;28;20058;-71
2022/11/17 09:31:13;;;;;;;14.63;2.00;;;9.80;99.90;;;9.63;100.00;95431.69;4962776;28;20552;-73
2022/11/17 09:33:41;;;;;;;12.57;2.00;;;9.80;99.90;;;9.66;100.00;95411.69;4966591;28;20054;-74
2022/11/17 09:36:11;;;;;;;13.15;1.77;;;9.80;99.90;;;9.59;100.00;95406.13;4978306;28;20043;-74
2022/11/17 09:38:39;;;;;;;17.85;2.35;;;9.70;99.90;;;9.36;100.00;95444.88;4963875;28;20051;-73
2022/11/17 09:41:15;;;;;;;10.13;1.50;;;9.70;99.90;;;9.38;100.00;95432.66;4965515;28;20575;-73
2022/11/17 09:44:02;;;;;;;17.23;2.42;;;9.70;99.90;;;9.52;100.00;95443.78;4964662;28;20365;-73
2022/11/17 09:46:55;;;;;;;14.93;1.98;;;9.60;99.90;;;9.45;100.00;95445.97;4963558;28;20063;-73
2022/11/17 09:50:02;;;;;;;13.65;2.35;;;9.60;99.90;;;9.46;100.00;95426.91;4965123;28;20046;-73
2022/11/17 09:52:58;;;;;;;14.45;2.50;;;9.60;99.90;;;9.55;100.00;95440.94;4977626;28;20132;-73
2022/11/17 09:55:39;;;;;;;16.85;2.35;;;9.60;99.90;;;9.45;100.00;95447.75;4980822;28;20057;-73
2022/11/17 09:58:45;;;;;;;16.08;2.53;;;9.60;99.90;;;9.56;100.00;95433.06;4965460;28;20047;-72
2022/11/17 10:01:16;;;;;;;16.40;2.63;;;9.60;99.90;;;9.47;100.00;95440.69;4979750;28;20449;-73
2022/11/17 10:03:46;;;;;;;15.15;2.50;;;9.60;99.90;;;9.56;100.00;95445.22;4977455;28;20111;-73
2022/11/17 10:06:21;;;;;;;14.63;2.28;;;9.50;99.90;;;9.42;100.00;95438.44;4963821;28;20058;-74
2022/11/17 10:09:00;;;;;;;19.98;2.67;;;9.50;99.90;;;9.37;100.00;95456.03;4964699;28;20062;-72
2022/11/17 10:11:35;;;;;;;12.50;2.40;;;9.50;99.90;;;9.19;100.00;95471.13;4965751;28;20085;-74
2022/11/17 10:14:06;;;;;;;13.30;1.85;;;9.40;99.90;;;9.16;100.00;95463.59;4968005;28;20516;-73
2022/11/17 10:16:35;;;;;;;10.48;2.33;;;9.40;99.90;;;9.24;100.00;95460.44;4965106;28;20074;-74
2022/11/17 10:19:16;;;;;;;14.57;2.67;;;9.40;99.90;;;9.16;100.00;95466.16;4941930;28;20332;-71
2022/11/17 10:21:48;;;;;;;13.55;2.70;;;9.40;99.90;;;9.11;100.00;95456.16;4972387;28;20045;-74
2022/11/17 10:24:33;;;;;;;11.15;2.25;;;9.40;99.90;;;9.17;100.00;95462.66;4961691;28;20420;-73
2022/11/17 10:27:17;;;;;;;13.23;2.85;;;9.40;99.90;;;9.14;100.00;95453.31;4965510;28;20085;-73
2022/11/17 10:30:18;;;;;;;11.70;1.85;;;9.40;99.90;;;9.21;100.00;95438.19;4966105;28;20062;-73
2022/11/17 10:32:54;;;;;;;9.80;1.90;;;9.30;99.90;;;9.34;100.00;95445.91;4960926;28;20517;-73
2022/11/17 10:35:53;;;;;;;13.30;1.95;;;9.40;99.90;;;9.69;100.00;95420.03;4956897;28;20614;-74
2022/11/17 10:38:28;;;;;;;9.98;1.30;;;;;;;9.75;100.00;95447.28;4946908;28;20057;-73
2022/11/17 10:40:58;;;;;;;7.32;0.95;;;9.90;99.90;;;9.80;100.00;95460.72;4961115;28;20047;-73
2022/11/17 10:43:28;;;;;;;7.80;1.10;;;10.10;99.90;;;9.89;100.00;95459.22;4963255;28;20145;-70
2022/11/17 10:46:01;;;;;;;9.68;1.30;;;10.30;99.90;;;9.78;100.00;95471.19;4961280;28;20544;-74
2022/11/17 10:48:37;;;;;;;7.80;1.50;;;10.20;99.90;;;9.79;100.00;95456.47;4960539;28;20039;-72
2022/11/17 10:51:21;;;;;;;6.22;1.27;;;10.10;99.90;;;9.91;100.00;95447.78;4976162;28;20051;-73
2022/11/17 10:54:20;;;;;;;7.05;1.40;;;10.20;99.90;;;9.91;100.00;95446.97;4956858;28;20523;-73
2022/11/17 10:56:51;;;;;;;10.88;1.40;;;10.10;99.90;;;9.78;100.00;95460.00;4948459;28;20050;-73
2022/11/17 10:59:43;;;;;;;9.10;1.73;;;10.10;99.90;;;9.78;100.00;95455.66;4974870;28;20046;-73
2022/11/17 11:02:33;;;;;;;10.80;1.92;;;10.20;99.90;;;9.95;100.00;95443.22;4962141;28;20126;-73
2022/11/17 11:05:20;;;;;;;16.27;2.55;;;10.20;99.90;;;9.84;100.00;95454.38;4960793;28;20133;-73
2022/11/17 11:07:47;;;;;;;21.00;3.28;;;10.20;99.90;;;10.01;100.00;95415.09;4961167;28;20051;-73
2022/11/17 11:10:19;;;;;;;18.75;2.20;;;10.20;99.90;;;10.04;100.00;95421.78;4958822;28;20046;-73
2022/11/17 11:13:18;;;;;;;14.02;2.42;;;10.20;99.90;;;9.94;100.00;95408.69;4961997;28;20110;-73
2022/11/17 11:15:45;;;;;;;22.63;3.00;;;10.20;99.90;;;9.93;100.00;95411.41;4960352;28;20499;-73
2022/11/17 11:18:15;;;;;;;19.60;2.60;;;10.10;99.90;;;9.99;100.00;95434.25;4962388;28;20059;-73
2022/11/17 11:20:52;;;;;;;14.88;2.78;;;10.10;99.90;;;10.09;100.00;95430.03;4962614;28;20827;-73